Time;durP1;ratioP1;P1;durP2;ratioP2;P2;SDS_P1;SDS_P2;PMS_P1;PMS_P2;Temp;Humidity;BMP_temperature;BMP_pressure;BME280_temperature;BME280_humidity;BME280_pressure;Samples;Min_cycle;Max_cycle;Signal;HPM_P1;HPM_P2
2023/12/23 00:01:34;;;;;;;0.60;0.28;;;10.30;99.90;;;;;;4994662;28;20029;-67
2023/12/23 00:04:01;;;;;;;0.52;0.30;;;10.30;99.90;;;;;;4991276;28;20101;-67
2023/12/23 00:06:27;;;;;;;0.22;0.22;;;10.30;99.90;;;;;;4978999;28;20052;-67
2023/12/23 00:08:52;;;;;;;0.40;0.25;;;10.20;99.90;;;;;;4993215;28;20494;-68
2023/12/23 00:11:18;;;;;;;1.65;0.30;;;10.20;99.90;;;;;;4978664;28;20031;-68
2023/12/23 00:13:44;;;;;;;4.72;1.00;;;10.20;99.90;;;;;;4994173;28;20048;-67
2023/12/23 00:16:10;;;;;;;2.50;0.57;;;10.10;99.90;;;;;;5012914;28;20112;-67
2023/12/23 00:18:36;;;;;;;0.40;0.30;;;10.10;99.90;;;;;;4992516;28;20034;-67
2023/12/23 00:21:02;;;;;;;0.32;0.30;;;10.10;99.90;;;;;;4998770;28;20077;-68
2023/12/23 00:23:28;;;;;;;1.10;0.52;;;10.00;99.90;;;;;;4975496;28;20356;-67
2023/12/23 00:25:54;;;;;;;0.32;0.32;;;10.00;99.90;;;;;;5011080;28;20036;-67
2023/12/23 00:28:20;;;;;;;3.90;1.17;;;9.90;99.90;;;;;;4994501;28;20053;-67
2023/12/23 00:30:46;;;;;;;1.23;1.10;;;9.90;99.90;;;;;;4994849;28;20058;-67
2023/12/23 00:33:11;;;;;;;1.00;0.40;;;9.90;99.90;;;;;;4993883;28;20076;-67
2023/12/23 00:35:37;;;;;;;5.63;0.98;;;9.80;99.90;;;;;;4976227;28;20030;-67
2023/12/23 00:38:03;;;;;;;0.65;0.45;;;10.00;99.90;;;;;;4994934;28;20037;-67
2023/12/23 00:40:29;;;;;;;0.75;0.30;;;9.90;99.90;;;;;;4992282;28;20033;-67
2023/12/23 00:42:54;;;;;;;0.20;0.20;;;9.90;99.90;;;;;;4994586;28;20030;-67
2023/12/23 00:45:20;;;;;;;0.55;0.20;;;9.90;99.90;;;;;;5009236;28;20096;-67
2023/12/23 00:47:46;;;;;;;3.92;0.90;;;9.90;99.90;;;;;;5010689;28;20403;-68
2023/12/23 00:50:12;;;;;;;0.10;0.10;;;9.90;99.90;;;;;;4975678;28;20057;-67
2023/12/23 00:52:38;;;;;;;1.90;0.22;;;9.90;99.90;;;;;;5010623;28;20030;-67
2023/12/23 00:55:04;;;;;;;3.97;0.75;;;9.90;99.90;;;;;;5008773;28;20502;-67
2023/12/23 00:57:29;;;;;;;1.63;0.60;;;9.90;99.90;;;;;;4994295;28;20022;-67
2023/12/23 00:59:55;;;;;;;2.97;1.30;;;9.90;99.90;;;;;;4994007;28;20068;-68
2023/12/23 01:02:21;;;;;;;0.40;0.40;;;10.00;99.90;;;;;;5011780;28;20057;-68
2023/12/23 01:04:47;;;;;;;1.90;0.80;;;10.00;99.90;;;;;;5009078;28;20034;-68
2023/12/23 01:07:13;;;;;;;1.45;0.75;;;10.00;99.90;;;;;;5010637;28;20022;-67
2023/12/23 01:09:38;;;;;;;1.83;0.30;;;10.00;99.90;;;;;;4994219;28;20048;-67
2023/12/23 01:12:05;;;;;;;0.60;0.32;;;10.10;99.90;;;;;;5012284;28;20026;-67
2023/12/23 01:14:31;;;;;;;5.68;0.30;;;10.00;99.90;;;;;;5009609;28;20033;-68
2023/12/23 01:16:56;;;;;;;1.08;0.38;;;10.00;99.90;;;;;;4994372;28;20029;-68
2023/12/23 01:19:22;;;;;;;7.70;0.57;;;10.00;99.90;;;;;;4993893;28;20348;-68
2023/12/23 01:21:48;;;;;;;0.22;0.20;;;10.00;99.90;;;;;;4993889;28;20052;-68
2023/12/23 01:24:14;;;;;;;0.85;0.47;;;10.10;99.90;;;;;;4991330;28;20520;-68
2023/12/23 01:26:39;;;;;;;3.53;0.50;;;10.00;99.90;;;;;;4969745;28;20101;-67
2023/12/23 01:29:05;;;;;;;8.63;0.57;;;10.00;99.90;;;;;;4993192;28;20569;-68
2023/12/23 01:31:31;;;;;;;0.75;0.35;;;10.00;99.90;;;;;;4978056;28;20029;-68
2023/12/23 01:33:57;;;;;;;3.47;0.32;;;10.00;99.90;;;;;;4991268;28;20042;-68
2023/12/23 01:36:22;;;;;;;0.45;0.35;;;10.00;99.90;;;;;;5011473;28;20034;-68
2023/12/23 01:38:48;;;;;;;0.60;0.38;;;10.00;99.90;;;;;;5010918;28;20045;-68
2023/12/23 01:41:14;;;;;;;0.90;0.55;;;10.00;99.90;;;;;;5011226;28;20567;-68
2023/12/23 01:43:40;;;;;;;0.85;0.55;;;10.00;99.90;;;;;;5008889;28;20046;-69
2023/12/23 01:46:06;;;;;;;2.45;1.30;;;10.00;99.90;;;;;;5011178;28;20029;-68
2023/12/23 01:48:41;;;;;;;0.30;0.30;;;9.90;99.90;;;;;;5008494;28;20109;-68
2023/12/23 01:51:09;;;;;;;1.70;0.68;;;10.00;99.90;;;;;;4993692;28;20030;-68
2023/12/23 01:53:36;;;;;;;5.38;0.75;;;10.00;99.90;;;;;;4992965;28;20497;-68
2023/12/23 01:56:02;;;;;;;4.35;0.88;;;10.00;99.90;;;;;;5007432;23;20045;-66
2023/12/23 01:58:28;;;;;;;3.90;0.30;;;10.00;99.90;;;;;;5027213;28;20025;-67
2023/12/23 02:00:53;;;;;;;1.75;0.60;;;10.10;99.90;;;;;;5027259;28;22093;-67
2023/12/23 02:03:20;;;;;;;0.10;0.10;;;10.00;99.90;;;;;;5007630;28;20040;-67
2023/12/23 02:05:46;;;;;;;1.35;0.32;;;9.80;99.90;;;;;;4994476;28;20046;-67
2023/12/23 02:08:13;;;;;;;0.95;0.40;;;9.70;99.90;;;;;;5012507;28;20037;-67
2023/12/23 02:10:40;;;;;;;0.77;0.40;;;9.60;99.90;;;;;;4989903;28;20034;-67
2023/12/23 02:13:24;;;;;;;3.08;0.88;;;9.60;99.90;;;;;;4986338;28;20113;-68
2023/12/23 02:15:51;;;;;;;4.57;0.98;;;9.70;99.90;;;;;;5001393;28;20041;-67
2023/12/23 02:18:19;;;;;;;2.08;0.32;;;9.70;99.90;;;;;;5007819;28;20116;-66
2023/12/23 02:20:51;;;;;;;1.08;0.47;;;9.70;99.90;;;;;;5010326;28;20029;-66
2023/12/23 02:23:18;;;;;;;6.38;0.75;;;9.70;99.90;;;;;;5012272;28;20108;-66
2023/12/23 02:25:56;;;;;;;0.93;0.30;;;9.70;99.90;;;;;;4993033;28;20049;-66
2023/12/23 02:28:24;;;;;;;2.33;0.50;;;9.70;99.90;;;;;;5004076;28;20388;-66
2023/12/23 02:30:51;;;;;;;2.13;0.88;;;9.60;99.90;;;;;;5013382;28;20470;-66
2023/12/23 02:33:17;;;;;;;2.72;1.48;;;9.60;99.90;;;;;;5010864;28;20044;-66
2023/12/23 02:35:43;;;;;;;1.15;0.57;;;9.70;99.90;;;;;;5013967;28;20029;-66
2023/12/23 02:38:10;;;;;;;4.18;0.77;;;9.70;99.90;;;;;;4996556;28;20045;-67
2023/12/23 02:40:36;;;;;;;1.02;0.17;;;9.70;99.90;;;;;;5009768;28;20427;-66
2023/12/23 02:43:02;;;;;;;0.10;0.10;;;9.80;99.90;;;;;;5008026;28;20389;-66
2023/12/23 02:45:28;;;;;;;0.77;0.38;;;9.80;99.90;;;;;;5008387;28;20029;-66
2023/12/23 02:47:53;;;;;;;3.08;0.57;;;9.90;99.90;;;;;;4995908;28;20026;-66
2023/12/23 02:50:19;;;;;;;5.35;0.40;;;9.90;99.90;;;;;;4996460;28;20018;-66
2023/12/23 02:52:45;;;;;;;0.35;0.25;;;9.80;99.90;;;;;;5013339;28;20548;-66
2023/12/23 02:55:11;;;;;;;0.20;0.20;;;9.90;99.90;;;;;;5013587;28;20122;-66
2023/12/23 02:57:36;;;;;;;2.75;0.50;;;9.90;99.90;;;;;;5013247;28;20382;-66
2023/12/23 03:00:03;;;;;;;1.83;0.40;;;9.90;99.90;;;;;;5013632;28;20082;-66
2023/12/23 03:02:29;;;;;;;1.45;0.47;;;9.80;99.90;;;;;;4995452;28;20125;-66
2023/12/23 03:04:55;;;;;;;3.65;0.68;;;9.70;99.90;;;;;;5016639;28;20116;-66
2023/12/23 03:07:20;;;;;;;1.52;0.38;;;9.60;99.90;;;;;;5000657;28;20022;-66
2023/12/23 03:09:46;;;;;;;0.88;0.40;;;9.50;99.90;;;;;;5012429;28;20058;-66
2023/12/23 03:12:12;;;;;;;0.70;0.63;;;9.50;99.90;;;;;;5010781;28;20508;-66
2023/12/23 03:14:39;;;;;;;4.57;0.82;;;9.60;99.90;;;;;;4995255;28;20104;-66
2023/12/23 03:17:05;;;;;;;2.85;0.25;;;9.60;99.90;;;;;;4995279;28;20081;-66
2023/12/23 03:19:31;;;;;;;0.65;0.20;;;9.60;99.90;;;;;;5011950;28;20034;-66
2023/12/23 03:21:57;;;;;;;5.18;1.45;;;9.60;99.90;;;;;;5024570;28;20363;-66
2023/12/23 03:24:22;;;;;;;0.98;0.50;;;9.70;99.90;;;;;;5025999;28;20034;-66
2023/12/23 03:26:48;;;;;;;2.22;0.45;;;9.70;99.90;;;;;;4993945;28;20069;-66
2023/12/23 03:29:14;;;;;;;1.33;0.40;;;9.70;99.90;;;;;;5013050;28;20033;-66
2023/12/23 03:31:40;;;;;;;2.08;0.73;;;9.70;99.90;;;;;;4993183;28;20031;-66
2023/12/23 03:34:05;;;;;;;2.20;0.73;;;9.80;99.90;;;;;;4995259;28;20026;-66
2023/12/23 03:36:31;;;;;;;0.70;0.35;;;9.80;99.90;;;;;;4991555;28;20081;-66
2023/12/23 03:38:57;;;;;;;5.00;0.55;;;9.80;99.90;;;;;;5003612;28;20021;-66
2023/12/23 03:41:24;;;;;;;1.88;0.47;;;9.80;99.90;;;;;;4995163;28;20433;-66
2023/12/23 03:43:49;;;;;;;3.38;1.27;;;9.80;99.90;;;;;;4989514;28;20030;-66
2023/12/23 03:46:19;;;;;;;1.83;0.40;;;9.90;99.90;;;;;;5008622;28;20496;-66
2023/12/23 03:48:49;;;;;;;2.28;0.38;;;9.80;99.90;;;;;;4995546;28;20018;-66
2023/12/23 03:51:15;;;;;;;0.20;0.20;;;9.80;99.90;;;;;;5026356;28;20069;-66
2023/12/23 03:53:42;;;;;;;0.22;0.08;;;9.80;99.90;;;;;;5012373;28;20079;-66
2023/12/23 03:56:07;;;;;;;0.10;0.10;;;9.80;99.90;;;;;;5028229;28;20433;-66
2023/12/23 03:58:33;;;;;;;0.17;0.17;;;9.80;99.90;;;;;;5021078;28;20045;-67
2023/12/23 04:00:59;;;;;;;1.92;0.45;;;9.80;99.90;;;;;;5020400;28;20022;-66
2023/12/23 04:03:24;;;;;;;0.93;0.40;;;9.70;99.90;;;;;;5027701;28;20025;-67
2023/12/23 04:05:50;;;;;;;2.47;0.50;;;9.70;99.90;;;;;;5021209;28;20120;-66
2023/12/23 04:08:16;;;;;;;0.30;0.25;;;9.70;99.90;;;;;;5019332;28;20021;-66
2023/12/23 04:10:42;;;;;;;0.28;0.20;;;9.70;99.90;;;;;;4996911;28;20188;-66
2023/12/23 04:13:08;;;;;;;2.90;0.82;;;9.70;99.90;;;;;;5025747;28;20112;-67
2023/12/23 04:15:34;;;;;;;1.10;0.55;;;9.70;99.90;;;;;;5011774;28;20034;-66
2023/12/23 04:17:59;;;;;;;1.13;0.85;;;9.60;99.90;;;;;;5012191;28;20030;-66
2023/12/23 04:20:25;;;;;;;0.45;0.32;;;9.60;99.90;;;;;;5012256;28;20034;-66
2023/12/23 04:22:51;;;;;;;0.93;0.60;;;9.60;99.90;;;;;;5011737;28;20044;-66
2023/12/23 04:25:17;;;;;;;2.47;0.68;;;9.60;99.90;;;;;;5026321;28;20064;-66
2023/12/23 04:27:42;;;;;;;1.08;0.40;;;9.60;99.90;;;;;;5013643;28;20488;-66
2023/12/23 04:30:09;;;;;;;0.82;0.17;;;9.60;99.90;;;;;;5011977;28;20057;-67
2023/12/23 04:32:34;;;;;;;2.58;0.43;;;9.60;99.90;;;;;;4994533;28;20018;-66
2023/12/23 04:35:01;;;;;;;0.45;0.28;;;9.60;99.90;;;;;;5031527;28;20121;-66
2023/12/23 04:37:26;;;;;;;0.20;0.20;;;9.60;99.90;;;;;;5015854;28;20026;-66
2023/12/23 04:39:53;;;;;;;2.10;0.50;;;9.60;99.90;;;;;;5022715;28;20091;-66
2023/12/23 04:42:19;;;;;;;0.50;0.40;;;9.60;99.90;;;;;;5008704;28;20057;-67
2023/12/23 04:44:45;;;;;;;7.43;2.20;;;9.60;99.90;;;;;;5003743;28;20359;-67
2023/12/23 04:47:11;;;;;;;0.35;0.30;;;9.60;99.90;;;;;;4991628;28;20029;-67
2023/12/23 04:49:38;;;;;;;3.63;0.93;;;9.50;99.90;;;;;;4993622;28;20037;-67
2023/12/23 04:52:04;;;;;;;0.57;0.38;;;9.60;99.90;;;;;;4993671;28;20053;-67
2023/12/23 04:54:31;;;;;;;1.33;0.38;;;9.60;99.90;;;;;;4993754;28;20037;-67
2023/12/23 04:56:56;;;;;;;5.47;0.55;;;9.60;99.90;;;;;;5011130;28;20517;-67
2023/12/23 04:59:22;;;;;;;0.80;0.80;;;9.60;99.90;;;;;;5012997;28;20070;-66
2023/12/23 05:01:49;;;;;;;0.70;0.70;;;9.70;99.90;;;;;;5018034;28;20049;-66
2023/12/23 05:04:15;;;;;;;3.30;0.50;;;9.60;99.90;;;;;;4993392;28;20022;-66
2023/12/23 05:06:41;;;;;;;0.57;0.30;;;9.60;99.90;;;;;;5019404;28;20036;-68
2023/12/23 05:09:07;;;;;;;0.30;0.30;;;9.70;99.90;;;;;;5006752;28;20474;-66
2023/12/23 05:11:35;;;;;;;1.30;0.88;;;9.70;99.90;;;;;;5022878;28;20041;-66
2023/12/23 05:14:01;;;;;;;9.60;0.80;;;9.70;99.90;;;;;;5015419;28;20026;-66
2023/12/23 05:16:27;;;;;;;0.32;0.20;;;9.80;99.90;;;;;;5010377;28;20042;-67
2023/12/23 05:18:53;;;;;;;1.73;0.47;;;9.80;99.90;;;;;;4987006;28;20497;-67
2023/12/23 05:21:19;;;;;;;0.40;0.35;;;9.80;99.90;;;;;;4990090;28;20076;-68
2023/12/23 05:23:44;;;;;;;0.68;0.52;;;9.80;99.90;;;;;;5010729;28;20509;-67
2023/12/23 05:26:11;;;;;;;2.55;0.55;;;9.90;99.90;;;;;;5016931;28;20030;-66
2023/12/23 05:28:36;;;;;;;0.50;0.30;;;9.90;99.90;;;;;;5020266;28;20072;-67
2023/12/23 05:31:02;;;;;;;2.17;1.00;;;9.90;99.90;;;;;;5000890;28;20454;-66
2023/12/23 05:33:28;;;;;;;2.17;0.55;;;9.90;99.90;;;;;;5009019;28;20112;-66
2023/12/23 05:35:54;;;;;;;3.10;0.55;;;9.90;99.90;;;;;;5027963;28;20170;-67
2023/12/23 05:38:20;;;;;;;0.88;0.88;;;9.90;99.90;;;;;;4993573;28;20695;-66
2023/12/23 05:40:45;;;;;;;0.85;0.55;;;9.90;99.90;;;;;;4992990;28;20045;-67
2023/12/23 05:43:11;;;;;;;2.60;0.55;;;9.90;99.90;;;;;;5016350;28;20037;-67
2023/12/23 05:45:37;;;;;;;1.17;0.68;;;9.80;99.90;;;;;;5029950;28;20032;-67
2023/12/23 05:48:03;;;;;;;0.98;0.43;;;9.80;99.90;;;;;;5005194;28;20029;-67
2023/12/23 05:50:28;;;;;;;5.32;0.75;;;9.90;99.90;;;;;;5030513;28;20337;-66
2023/12/23 05:52:54;;;;;;;5.25;1.15;;;9.80;99.90;;;;;;5022049;28;20107;-67
2023/12/23 05:55:20;;;;;;;0.30;0.20;;;9.90;99.90;;;;;;5006438;28;20551;-67
2023/12/23 05:57:45;;;;;;;0.30;0.30;;;9.90;99.90;;;;;;5008754;28;20042;-67
2023/12/23 06:00:12;;;;;;;2.08;0.60;;;9.90;99.90;;;;;;5011005;28;20036;-67
2023/12/23 06:02:38;;;;;;;1.83;0.70;;;9.90;99.90;;;;;;5009286;28;20088;-67
2023/12/23 06:05:04;;;;;;;1.23;0.40;;;10.00;99.90;;;;;;4998573;28;20033;-67
2023/12/23 06:07:30;;;;;;;0.25;0.22;;;10.00;99.90;;;;;;4999433;28;20096;-67
2023/12/23 06:09:56;;;;;;;3.15;1.27;;;10.00;99.90;;;;;;5016300;28;20394;-67
2023/12/23 06:12:22;;;;;;;24.42;1.02;;;10.00;99.90;;;;;;4999801;28;20506;-66
2023/12/23 06:14:47;;;;;;;6.45;0.73;;;9.90;99.90;;;;;;4998297;28;20034;-66
2023/12/23 06:17:13;;;;;;;0.82;0.77;;;9.90;99.90;;;;;;5016970;28;20379;-66
2023/12/23 06:19:39;;;;;;;1.45;0.93;;;10.00;99.90;;;;;;5034033;28;20025;-66
2023/12/23 06:22:04;;;;;;;5.38;0.85;;;9.90;99.90;;;;;;5021686;28;20026;-68
2023/12/23 06:24:30;;;;;;;1.42;0.50;;;10.00;99.90;;;;;;5015918;28;20022;-67
2023/12/23 06:26:56;;;;;;;2.25;0.68;;;9.90;99.90;;;;;;5022739;28;20390;-67
2023/12/23 06:29:22;;;;;;;5.60;0.85;;;10.00;99.90;;;;;;5014716;28;20085;-66
2023/12/23 06:31:47;;;;;;;1.17;0.47;;;10.00;99.90;;;;;;5015295;28;20363;-67
2023/12/23 06:34:13;;;;;;;0.43;0.38;;;9.90;99.90;;;;;;5013728;28;20029;-67
2023/12/23 06:36:42;;;;;;;1.35;0.63;;;10.00;99.90;;;;;;5013656;28;20446;-67
2023/12/23 06:39:07;;;;;;;0.55;0.52;;;10.00;99.90;;;;;;4996923;28;20049;-67
2023/12/23 06:41:33;;;;;;;2.58;0.75;;;10.00;99.90;;;;;;5004299;28;20445;-67
2023/12/23 06:43:59;;;;;;;0.80;0.43;;;10.00;99.90;;;;;;5033423;28;20033;-66
2023/12/23 06:46:24;;;;;;;1.67;0.70;;;9.90;99.90;;;;;;5026560;28;20527;-67
2023/12/23 06:48:51;;;;;;;1.35;0.65;;;9.90;99.90;;;;;;5003015;28;20085;-67
2023/12/23 06:51:20;;;;;;;3.78;0.43;;;9.90;99.90;;;;;;5013283;28;20022;-67
2023/12/23 06:53:48;;;;;;;1.13;0.40;;;9.90;99.90;;;;;;5014464;28;20050;-67
2023/12/23 06:56:13;;;;;;;0.30;0.30;;;9.90;99.90;;;;;;4996857;28;20084;-67
2023/12/23 06:58:39;;;;;;;1.65;0.40;;;9.90;99.90;;;;;;5012106;28;20458;-67
2023/12/23 07:01:05;;;;;;;3.75;0.60;;;9.90;99.90;;;;;;4994878;28;20026;-67
2023/12/23 07:03:31;;;;;;;10.75;1.13;;;9.90;99.90;;;;;;5000757;28;20439;-67
2023/12/23 07:05:57;;;;;;;0.45;0.40;;;9.90;99.90;;;;;;5013378;28;20092;-67
2023/12/23 07:08:23;;;;;;;6.97;0.85;;;9.90;99.90;;;;;;5033411;28;20577;-67
2023/12/23 07:10:50;;;;;;;2.95;0.80;;;9.90;99.90;;;;;;5031125;28;20072;-66
2023/12/23 07:13:16;;;;;;;0.40;0.30;;;9.80;99.90;;;;;;5006838;28;20048;-66
2023/12/23 07:15:42;;;;;;;14.10;0.90;;;9.90;99.90;;;;;;5017473;28;20030;-67
2023/12/23 07:18:09;;;;;;;1.95;0.57;;;9.90;99.90;;;;;;5007510;28;20038;-67
2023/12/23 07:20:34;;;;;;;2.28;0.45;;;9.90;99.90;;;;;;4996833;28;20037;-66
2023/12/23 07:23:00;;;;;;;0.63;0.40;;;9.90;99.90;;;;;;4994787;28;20032;-66
2023/12/23 07:25:26;;;;;;;0.38;0.25;;;9.90;99.90;;;;;;4980541;28;20038;-67
2023/12/23 07:27:52;;;;;;;0.52;0.32;;;9.90;99.90;;;;;;4993736;28;20061;-66
2023/12/23 07:30:17;;;;;;;2.58;0.55;;;10.00;99.90;;;;;;5007434;28;20053;-66
2023/12/23 07:32:43;;;;;;;1.33;0.50;;;10.00;99.90;;;;;;5012513;28;20026;-66
2023/12/23 07:35:09;;;;;;;2.90;0.43;;;10.00;99.90;;;;;;5012470;28;20030;-68
2023/12/23 07:37:34;;;;;;;0.22;0.22;;;10.00;99.90;;;;;;5004395;28;20042;-66
2023/12/23 07:40:04;;;;;;;0.90;0.47;;;9.90;99.90;;;;;;5009361;28;20030;-66
2023/12/23 07:42:30;;;;;;;2.03;1.05;;;9.90;99.90;;;;;;4994526;28;20475;-66
2023/12/23 07:44:55;;;;;;;5.07;0.68;;;10.00;99.90;;;;;;5011978;28;20026;-66
2023/12/23 07:47:21;;;;;;;1.27;0.98;;;10.00;99.90;;;;;;5004458;28;20034;-66
2023/12/23 07:49:47;;;;;;;0.55;0.52;;;10.00;99.90;;;;;;5012523;28;20053;-65
2023/12/23 07:52:13;;;;;;;10.20;1.15;;;9.90;99.90;;;;;;5012446;28;20478;-67
2023/12/23 07:54:38;;;;;;;2.00;0.43;;;9.90;99.90;;;;;;4986675;28;20038;-65
2023/12/23 07:57:04;;;;;;;0.20;0.20;;;10.00;99.90;;;;;;5038809;23;20128;-65
2023/12/23 07:59:30;;;;;;;2.38;0.38;;;9.90;99.90;;;;;;5033102;28;20040;-70
2023/12/23 08:01:56;;;;;;;0.80;0.50;;;9.90;99.90;;;;;;5030570;28;20029;-70
2023/12/23 08:04:22;;;;;;;0.70;0.40;;;9.90;99.90;;;;;;5032276;28;20065;-70
2023/12/23 08:06:48;;;;;;;1.83;0.63;;;9.90;99.90;;;;;;5030533;28;20112;-71
2023/12/23 08:09:13;;;;;;;0.63;0.25;;;9.90;99.90;;;;;;5032787;28;20028;-70
2023/12/23 08:11:39;;;;;;;0.57;0.40;;;9.90;99.90;;;;;;5024835;28;20025;-71
2023/12/23 08:14:05;;;;;;;0.28;0.28;;;9.90;99.90;;;;;;5032030;28;20478;-71
2023/12/23 08:16:31;;;;;;;0.10;0.10;;;9.90;99.90;;;;;;5022960;28;20032;-70
2023/12/23 08:18:56;;;;;;;1.65;0.65;;;9.80;99.90;;;;;;5029518;28;20052;-71
2023/12/23 08:21:22;;;;;;;0.70;0.22;;;9.90;99.90;;;;;;5031920;28;20553;-71
2023/12/23 08:23:48;;;;;;;0.10;0.03;;;9.90;99.90;;;;;;5030920;28;20485;-72
2023/12/23 08:26:13;;;;;;;0.55;0.40;;;9.90;99.90;;;;;;5027496;28;20068;-71
2023/12/23 08:28:39;;;;;;;0.77;0.30;;;9.90;99.90;;;;;;5029413;28;20017;-71
2023/12/23 08:31:05;;;;;;;1.25;0.88;;;9.90;99.90;;;;;;5031849;28;20057;-71
2023/12/23 08:33:33;;;;;;;1.10;0.77;;;9.90;99.90;;;;;;5031659;28;20022;-70
2023/12/23 08:35:59;;;;;;;0.20;0.20;;;9.80;99.90;;;;;;5031125;28;20029;-71
2023/12/23 08:38:24;;;;;;;2.35;0.22;;;9.80;99.90;;;;;;5014263;28;20029;-72
2023/12/23 08:40:50;;;;;;;0.30;0.30;;;9.90;99.90;;;;;;5029850;28;20033;-72
2023/12/23 08:43:16;;;;;;;0.20;0.10;;;9.80;99.90;;;;;;5024705;28;20017;-71
2023/12/23 08:45:42;;;;;;;0.10;0.10;;;9.80;99.90;;;;;;5027605;28;20033;-71
2023/12/23 08:48:08;;;;;;;1.17;0.90;;;9.80;99.90;;;;;;5031818;28;20017;-71
2023/12/23 08:50:34;;;;;;;0.15;0.15;;;9.80;99.90;;;;;;4997735;28;20043;-71
2023/12/23 08:53:00;;;;;;;0.57;0.40;;;9.80;99.90;;;;;;5023938;28;20029;-71
2023/12/23 08:55:25;;;;;;;0.08;0.08;;;9.70;99.90;;;;;;5031388;28;20048;-71
2023/12/23 08:57:52;;;;;;;0.90;0.20;;;9.70;99.90;;;;;;5030929;28;20083;-72
2023/12/23 09:00:18;;;;;;;0.30;0.28;;;9.70;99.90;;;;;;5031514;28;20061;-72
2023/12/23 09:02:44;;;;;;;4.38;0.20;;;9.70;99.90;;;;;;5023390;28;20044;-72
2023/12/23 09:05:10;;;;;;;1.70;0.38;;;9.70;99.90;;;;;;5013444;28;20033;-71
2023/12/23 09:07:36;;;;;;;0.98;0.50;;;9.70;99.90;;;;;;5031682;28;20064;-71
2023/12/23 09:10:04;;;;;;;0.73;0.20;;;9.70;99.90;;;;;;5035320;28;20041;-71
2023/12/23 09:12:33;;;;;;;0.05;0.05;;;9.60;99.90;;;;;;5023911;28;20052;-71
2023/12/23 09:14:59;;;;;;;0.80;0.50;;;9.60;99.90;;;;;;5027506;28;20040;-71
2023/12/23 09:17:28;;;;;;;1.95;0.22;;;9.60;99.90;;;;;;5026484;28;20468;-71
2023/12/23 09:19:53;;;;;;;11.88;0.45;;;9.70;99.90;;;;;;5031170;28;20117;-71
2023/12/23 09:22:19;;;;;;;0.43;0.20;;;9.70;99.90;;;;;;5028373;28;20116;-73
2023/12/23 09:24:45;;;;;;;0.22;0.20;;;9.70;99.90;;;;;;5021632;28;20065;-71
2023/12/23 09:27:14;;;;;;;0.25;0.20;;;9.60;99.90;;;;;;5030735;28;20116;-71
2023/12/23 09:29:42;;;;;;;0.77;0.17;;;9.60;99.90;;;;;;5031350;28;20040;-71
2023/12/23 09:32:08;;;;;;;0.30;0.20;;;9.70;99.90;;;;;;5022271;28;20049;-71
2023/12/23 09:34:35;;;;;;;0.45;0.20;;;9.70;99.90;;;;;;4970108;28;20537;-71
2023/12/23 09:37:04;;;;;;;0.38;0.20;;;9.70;99.90;;;;;;4973594;28;20152;-71
2023/12/23 09:39:29;;;;;;;0.30;0.10;;;9.70;99.90;;;;;;4973848;28;20410;-71
2023/12/23 09:41:56;;;;;;;0.00;0.00;;;9.70;99.90;;;;;;4950357;28;20039;-71
2023/12/23 09:44:29;;;;;;;0.00;0.00;;;9.70;99.90;;;;;;4973391;28;20039;-70
2023/12/23 09:46:58;;;;;;;0.47;0.20;;;9.70;99.90;;;;;;4950469;28;20053;-70
2023/12/23 09:49:24;;;;;;;0.00;0.00;;;9.70;99.90;;;;;;4973497;28;20605;-70
2023/12/23 09:51:50;;;;;;;0.28;0.20;;;9.70;99.90;;;;;;4955814;28;20067;-70
2023/12/23 09:54:21;;;;;;;0.15;0.10;;;9.80;99.90;;;;;;4953458;28;20125;-71
2023/12/23 09:56:50;;;;;;;0.00;0.00;;;9.80;99.90;;;;;;4971802;28;20043;-71
2023/12/23 09:59:16;;;;;;;0.10;0.10;;;9.80;99.90;;;;;;4973302;28;20029;-72
2023/12/23 10:01:42;;;;;;;0.10;0.10;;;9.80;99.90;;;;;;4953812;28;20129;-66
2023/12/23 10:04:08;;;;;;;0.00;0.00;;;9.80;99.90;;;;;;4972274;28;20097;-66
2023/12/23 10:06:33;;;;;;;0.85;0.10;;;9.80;99.90;;;;;;5011262;28;20054;-66
2023/12/23 10:08:59;;;;;;;0.00;0.00;;;9.80;99.90;;;;;;5029744;28;20022;-66
2023/12/23 10:11:25;;;;;;;0.10;0.10;;;9.80;99.90;;;;;;5029048;28;20737;-66
2023/12/23 10:13:52;;;;;;;0.00;0.00;;;9.70;99.90;;;;;;5034137;28;20466;-69
2023/12/23 10:16:18;;;;;;;0.10;0.10;;;9.70;99.90;;;;;;5016879;28;20021;-69
2023/12/23 10:18:46;;;;;;;0.10;0.10;;;9.80;99.90;;;;;;5034564;28;20399;-65
2023/12/23 10:21:11;;;;;;;0.10;0.10;;;9.70;99.90;;;;;;5033801;28;20025;-65
2023/12/23 10:23:37;;;;;;;0.20;0.20;;;9.70;99.90;;;;;;5016267;28;20022;-64
2023/12/23 10:26:03;;;;;;;0.00;0.00;;;9.70;99.90;;;;;;5033788;28;20152;-65
2023/12/23 10:28:36;;;;;;;0.10;0.10;;;9.80;99.90;;;;;;5034150;28;20516;-65
2023/12/23 10:31:03;;;;;;;1.08;0.52;;;9.80;99.90;;;;;;5006576;28;20032;-65
2023/12/23 10:33:33;;;;;;;0.03;0.03;;;9.80;99.90;;;;;;5015763;28;20486;-64
2023/12/23 10:36:00;;;;;;;0.13;0.10;;;9.80;99.90;;;;;;5014175;28;20067;-64
2023/12/23 10:38:27;;;;;;;0.05;0.05;;;9.90;99.90;;;;;;5032573;28;20036;-64
2023/12/23 10:41:08;;;;;;;0.10;0.10;;;9.90;99.90;;;;;;5011877;28;20033;-68
2023/12/23 10:43:35;;;;;;;;;;;9.90;99.90;;;;;;5032386;28;20041;-64
2023/12/23 10:46:03;;;;;;;0.08;0.08;;;9.80;99.90;;;;;;5012313;28;19940;-63
2023/12/23 10:48:32;;;;;;;1.65;0.20;;;9.80;99.90;;;;;;5015855;28;20053;-64
2023/12/23 10:51:00;;;;;;;0.22;0.10;;;9.80;99.90;;;;;;5028322;28;20033;-62
2023/12/23 10:53:27;;;;;;;0.10;0.10;;;9.80;99.90;;;;;;5015625;28;20025;-64
2023/12/23 10:55:54;;;;;;;0.68;0.22;;;9.80;99.90;;;;;;5033173;28;20405;-64
2023/12/23 10:58:21;;;;;;;0.00;0.00;;;9.80;99.90;;;;;;5016015;28;20021;-64
2023/12/23 11:00:49;;;;;;;0.63;0.10;;;9.90;99.90;;;;;;5012684;28;20552;-65
2023/12/23 11:03:15;;;;;;;0.00;0.00;;;9.80;99.90;;;;;;5015597;28;20033;-65
2023/12/23 11:05:43;;;;;;;0.50;0.20;;;9.90;99.90;;;;;;5030107;28;20401;-64
2023/12/23 11:08:20;;;;;;;0.10;0.10;;;9.80;99.90;;;;;;5030863;28;20029;-65
2023/12/23 11:10:48;;;;;;;0.45;0.10;;;9.80;99.90;;;;;;5013045;28;20402;-65
2023/12/23 11:13:15;;;;;;;0.10;0.10;;;9.80;99.90;;;;;;5014023;28;20083;-65
2023/12/23 11:15:42;;;;;;;0.10;0.10;;;9.80;99.90;;;;;;5009435;28;20026;-65
2023/12/23 11:18:11;;;;;;;0.00;0.00;;;9.80;99.90;;;;;;5016000;28;20505;-65
2023/12/23 11:20:47;;;;;;;0.65;0.25;;;9.80;99.90;;;;;;5011721;28;20066;-66
2023/12/23 11:23:29;;;;;;;0.20;0.20;;;9.80;99.90;;;;;;5014510;28;20088;-67
2023/12/23 11:25:55;;;;;;;0.22;0.13;;;9.80;99.90;;;;;;5027667;28;20121;-67
2023/12/23 11:28:22;;;;;;;1.67;0.15;;;9.80;99.90;;;;;;5014262;28;20033;-67
2023/12/23 11:30:49;;;;;;;0.15;0.10;;;9.80;99.90;;;;;;5011341;28;20029;-66
2023/12/23 11:33:18;;;;;;;0.30;0.30;;;9.80;99.90;;;;;;5014742;28;20449;-66
2023/12/23 11:35:52;;;;;;;1.08;0.40;;;9.80;99.90;;;;;;4995950;28;20044;-66
2023/12/23 11:38:20;;;;;;;0.22;0.22;;;9.80;99.90;;;;;;5011839;28;20096;-66
2023/12/23 11:40:48;;;;;;;0.20;0.20;;;9.80;99.90;;;;;;5025227;28;20034;-66
2023/12/23 11:43:15;;;;;;;0.20;0.10;;;9.70;99.90;;;;;;5014822;28;20029;-66
2023/12/23 11:45:45;;;;;;;0.10;0.10;;;9.70;99.90;;;;;;5011637;28;20033;-66
2023/12/23 11:48:11;;;;;;;0.15;0.10;;;9.60;99.90;;;;;;5015258;28;20112;-67
2023/12/23 11:50:37;;;;;;;0.10;0.10;;;9.60;99.90;;;;;;5027204;28;20033;-66
2023/12/23 11:53:03;;;;;;;0.10;0.10;;;9.60;99.90;;;;;;5032351;28;20355;-66
2023/12/23 11:55:29;;;;;;;1.42;0.13;;;9.60;99.90;;;;;;5029958;28;20156;-67
2023/12/23 11:57:55;;;;;;;0.20;0.20;;;9.60;99.90;;;;;;5013489;28;20164;-66
2023/12/23 12:00:21;;;;;;;0.40;0.30;;;9.70;99.90;;;;;;5007758;28;20486;-65
2023/12/23 12:02:47;;;;;;;0.20;0.20;;;9.70;99.90;;;;;;5031953;28;20040;-67
2023/12/23 12:05:12;;;;;;;0.03;0.03;;;9.80;99.90;;;;;;5031530;28;20036;-67
2023/12/23 12:07:38;;;;;;;0.05;0.05;;;9.80;99.90;;;;;;5014336;28;20032;-67
2023/12/23 12:10:05;;;;;;;0.20;0.20;;;9.80;99.90;;;;;;5016269;28;20029;-68
2023/12/23 12:12:30;;;;;;;0.10;0.10;;;9.90;99.90;;;;;;5035406;28;20040;-68
2023/12/23 12:14:56;;;;;;;0.15;0.15;;;9.90;99.90;;;;;;5017210;28;20029;-67
2023/12/23 12:17:24;;;;;;;0.00;0.00;;;10.00;99.90;;;;;;5010519;28;20029;-68
2023/12/23 12:19:50;;;;;;;0.00;0.00;;;10.00;99.90;;;;;;5030513;28;20124;-67
2023/12/23 12:22:16;;;;;;;0.10;0.10;;;10.10;99.90;;;;;;5012628;28;20036;-67
2023/12/23 12:24:43;;;;;;;0.10;0.10;;;10.10;99.90;;;;;;5013540;28;20033;-68
2023/12/23 12:27:09;;;;;;;0.20;0.20;;;10.10;99.90;;;;;;5027715;28;20465;-67
2023/12/23 12:29:35;;;;;;;0.90;0.20;;;10.20;99.90;;;;;;4997282;28;20025;-67
2023/12/23 12:32:01;;;;;;;0.10;0.10;;;10.10;99.90;;;;;;5009813;28;20100;-65
2023/12/23 12:34:31;;;;;;;0.30;0.20;;;10.10;99.90;;;;;;5028838;28;20033;-65
2023/12/23 12:36:57;;;;;;;0.47;0.30;;;10.10;99.90;;;;;;5012904;28;20145;-65
2023/12/23 12:39:23;;;;;;;0.00;0.00;;;10.10;99.90;;;;;;5025486;28;20029;-72
2023/12/23 12:41:51;;;;;;;0.20;0.20;;;10.10;99.90;;;;;;5012892;28;20041;-70
2023/12/23 12:44:19;;;;;;;0.80;0.30;;;10.10;99.90;;;;;;5013544;28;20029;-66
2023/12/23 12:46:53;;;;;;;1.52;0.85;;;10.10;99.90;;;;;;5008589;28;20100;-65
2023/12/23 12:49:22;;;;;;;0.32;0.20;;;10.10;99.90;;;;;;5027654;28;20033;-65
2023/12/23 12:51:51;;;;;;;0.85;0.25;;;10.10;99.90;;;;;;4994254;28;20104;-65